Time;durP1;ratioP1;P1;durP2;ratioP2;P2;SDS_P1;SDS_P2;PMS_P1;PMS_P2;Temp;Humidity;BMP_temperature;BMP_pressure;BME280_temperature;BME280_humidity;BME280_pressure;Samples;Min_cycle;Max_cycle;Signal;HPM_P1;HPM_P2
2022/04/06 00:03:29;;;;;;;10.75;5.32;;;8.60;99.90;;;;;;20895249;28;20040;-74
2022/04/06 00:13:30;;;;;;;10.17;5.87;;;8.60;99.90;;;;;;20920532;28;20037;-74
2022/04/06 00:23:30;;;;;;;7.03;5.10;;;8.60;99.90;;;;;;20902597;28;20060;-74
2022/04/06 00:33:31;;;;;;;7.17;5.10;;;8.70;99.90;;;;;;20920155;28;20082;-75
2022/04/06 00:43:32;;;;;;;10.53;5.87;;;8.60;99.90;;;;;;20918487;28;20025;-74
2022/04/06 00:53:33;;;;;;;10.77;5.37;;;8.70;99.90;;;;;;20918168;28;20155;-74
2022/04/06 01:03:34;;;;;;;10.10;5.97;;;8.60;99.90;;;;;;20916488;28;20029;-75
2022/04/06 01:13:35;;;;;;;10.70;4.83;;;8.60;99.90;;;;;;20916861;28;20029;-75
2022/04/06 01:23:36;;;;;;;11.33;5.10;;;8.70;99.90;;;;;;20914936;28;20091;-75
2022/04/06 01:33:37;;;;;;;9.87;5.30;;;8.70;99.90;;;;;;20915512;28;20559;-75
2022/04/06 01:43:38;;;;;;;9.43;5.40;;;8.70;99.90;;;;;;20896705;28;20036;-75
2022/04/06 01:53:39;;;;;;;17.85;7.72;;;8.80;99.90;;;;;;20895610;28;20283;-75
2022/04/06 02:03:40;;;;;;;17.43;7.43;;;8.70;99.90;;;;;;20914583;28;20043;-74
2022/04/06 02:13:41;;;;;;;10.70;6.67;;;8.70;99.90;;;;;;20912007;28;20464;-75
2022/04/06 02:23:41;;;;;;;11.97;6.13;;;8.60;99.90;;;;;;20911658;28;20032;-75
2022/04/06 02:33:42;;;;;;;9.70;6.50;;;8.50;99.90;;;;;;20892319;28;20067;-74
2022/04/06 02:43:43;;;;;;;14.37;8.03;;;8.40;99.90;;;;;;20909943;28;20099;-75
2022/04/06 02:53:44;;;;;;;18.83;9.43;;;8.40;99.90;;;;;;20891183;28;20100;-75
2022/04/06 03:03:45;;;;;;;15.17;8.17;;;8.40;99.90;;;;;;20890494;28;20041;-74
2022/04/06 03:13:45;;;;;;;17.60;9.13;;;8.40;99.90;;;;;;20908005;28;20518;-74
2022/04/06 03:23:46;;;;;;;17.53;9.77;;;8.30;99.90;;;;;;20908344;28;20053;-74
2022/04/06 03:33:47;;;;;;;14.47;8.70;;;8.30;99.90;;;;;;20889256;28;20060;-74
2022/04/06 03:43:48;;;;;;;17.37;7.90;;;8.40;99.90;;;;;;20915572;28;20490;-73
2022/04/06 03:53:49;;;;;;;18.30;8.07;;;8.40;99.90;;;;;;20926316;28;20564;-73
2022/04/06 04:03:49;;;;;;;11.73;7.50;;;8.40;99.90;;;;;;20927117;22;20522;-73
2022/04/06 04:13:50;;;;;;;19.87;8.37;;;8.40;99.90;;;;;;20904094;28;20114;-74
2022/04/06 04:23:51;;;;;;;13.70;8.10;;;8.40;99.90;;;;;;20921434;28;20057;-73
2022/04/06 04:33:52;;;;;;;20.80;9.07;;;8.40;99.90;;;;;;20920358;28;20025;-73
2022/04/06 04:43:53;;;;;;;10.43;7.00;;;8.30;99.90;;;;;;20920919;28;20278;-74
2022/04/06 04:53:57;;;;;;;14.20;6.90;;;8.30;99.90;;;;;;20905062;28;20675;-73
2022/04/06 05:03:58;;;;;;;15.43;7.05;;;8.40;99.90;;;;;;20921176;28;20029;-73
2022/04/06 05:13:59;;;;;;;16.40;9.60;;;8.30;99.90;;;;;;20919748;28;20120;-73
2022/04/06 05:24:00;;;;;;;15.60;9.00;;;8.30;99.90;;;;;;20918169;28;20083;-73
2022/04/06 05:34:01;;;;;;;16.10;7.90;;;8.40;99.90;;;;;;20916341;28;20441;-75
2022/04/06 05:44:02;;;;;;;16.53;9.47;;;8.40;99.90;;;;;;20914878;28;20052;-76
2022/04/06 05:54:04;;;;;;;18.77;10.77;;;8.50;99.90;;;;;;20914368;28;20056;-76
2022/04/06 06:04:05;;;;;;;15.43;8.88;;;8.50;99.90;;;;;;20895698;28;20041;-77
2022/04/06 06:14:06;;;;;;;12.50;7.60;;;8.70;99.90;;;;;;20838119;28;20033;-76
2022/04/06 06:24:07;;;;;;;12.77;7.43;;;8.70;99.90;;;;;;20782757;28;20491;-76
2022/04/06 06:34:08;;;;;;;12.67;7.50;;;8.90;99.90;;;;;;20832543;28;20075;-76
2022/04/06 06:44:09;;;;;;;11.73;7.50;;;9.10;99.90;;;;;;20828233;28;20029;-76
2022/04/06 06:54:10;;;;;;;11.73;7.03;;;9.30;99.90;;;;;;20809341;28;20103;-76
2022/04/06 07:04:11;;;;;;;10.37;6.37;;;9.50;99.90;;;;;;20833601;28;20152;-76
2022/04/06 07:14:11;;;;;;;9.13;6.50;;;9.80;99.90;;;;;;20826004;28;20021;-76
2022/04/06 07:24:12;;;;;;;10.07;5.93;;;9.70;99.90;;;;;;20807625;28;20025;-76
2022/04/06 07:34:13;;;;;;;9.43;6.03;;;10.20;99.90;;;;;;20825012;28;20025;-76
2022/04/06 07:44:14;;;;;;;7.00;4.60;;;11.10;99.90;;;;;;20825138;28;20029;-76
2022/04/06 07:54:14;;;;;;;6.30;4.00;;;11.00;99.90;;;;;;20824248;28;20045;-76
2022/04/06 08:04:15;;;;;;;5.37;3.47;;;10.90;99.90;;;;;;20825506;28;20084;-76
2022/04/06 08:14:16;;;;;;;6.23;3.70;;;11.00;99.90;;;;;;20825090;28;20431;-75
2022/04/06 08:24:17;;;;;;;5.57;2.77;;;11.80;99.90;;;;;;20832890;28;20041;-75
2022/04/06 08:34:18;;;;;;;2.80;2.00;;;12.50;99.90;;;;;;20837487;28;20387;-75
2022/04/06 08:44:19;;;;;;;4.80;2.53;;;12.30;99.90;;;;;;20837072;28;20037;-75
2022/04/06 08:54:20;;;;;;;2.03;1.37;;;12.30;99.90;;;;;;20819556;28;20484;-75
2022/04/06 09:04:21;;;;;;;5.50;2.20;;;12.30;99.90;;;;;;20835487;28;20057;-74
2022/04/06 09:14:32;;;;;;;2.83;1.63;;;12.90;99.90;;;;;;20817086;28;20033;-75
2022/04/06 09:24:33;;;;;;;4.10;1.83;;;13.20;99.90;;;;;;20834540;28;20029;-75
2022/04/06 09:34:34;;;;;;;1.93;1.17;;;13.00;99.90;;;;;;20815659;28;20039;-75
2022/04/06 09:55:08;;;;;;;1.58;1.30;;;14.30;99.90;;;;;;20814818;28;20385;-75
2022/04/06 10:05:13;;;;;;;2.58;1.88;;;13.80;99.90;;;;;;20826770;22;20734;-74
2022/04/06 10:15:14;;;;;;;4.68;1.60;;;14.20;99.90;;;;;;20829989;28;20527;-74
2022/04/06 10:25:40;;;;;;;2.23;1.40;;;14.10;99.90;;;;;;20829136;28;20053;-75
2022/04/06 10:35:41;;;;;;;1.83;1.10;;;15.30;99.90;;;;;;20810825;28;20041;-75
2022/04/06 10:45:42;;;;;;;2.57;1.03;;;15.80;99.90;;;;;;20827980;28;20057;-75
2022/04/06 10:55:55;;;;;;;3.97;1.57;;;15.20;99.90;;;;;;20828997;28;20116;-75
2022/04/06 11:05:56;;;;;;;2.20;1.52;;;15.70;99.90;;;;;;20808770;28;20038;-75
2022/04/06 11:15:57;;;;;;;1.50;1.10;;;15.30;99.90;;;;;;20825887;28;20048;-75
2022/04/06 11:25:59;;;;;;;1.27;1.17;;;18.20;99.90;;;;;;20807666;28;20041;-75
2022/04/06 11:36:14;;;;;;;1.55;1.23;;;17.10;99.90;;;;;;20825038;28;20030;-75
2022/04/06 11:46:15;;;;;;;4.18;1.23;;;17.20;99.90;;;;;;20824678;28;20132;-75
2022/04/06 11:56:21;;;;;;;2.33;1.00;;;17.50;99.90;;;;;;20806898;28;20104;-75
2022/04/06 12:06:35;;;;;;;1.30;0.80;;;16.40;99.90;;;;;;20834557;28;20048;-76
2022/04/06 12:16:41;;;;;;;1.80;0.80;;;16.60;99.90;;;;;;20821486;28;20069;-75
2022/04/06 12:26:45;;;;;;;3.42;0.75;;;17.40;99.90;;;;;;20838869;28;20033;-75
2022/04/06 12:36:49;;;;;;;0.50;0.50;;;17.10;99.90;;;;;;20841520;28;20443;-76
2022/04/06 12:46:51;;;;;;;3.10;0.63;;;16.40;99.90;;;;;;20819418;28;20041;-76
2022/04/06 12:57:13;;;;;;;0.70;0.60;;;16.80;99.90;;;;;;20819422;28;20091;-75
2022/04/06 13:07:14;;;;;;;0.60;0.60;;;16.40;99.90;;;;;;20835407;28;20029;-76
2022/04/06 13:17:16;;;;;;;2.23;0.67;;;15.80;99.90;;;;;;20834482;28;20040;-76
2022/04/06 13:27:20;;;;;;;1.00;0.60;;;15.80;99.90;;;;;;20834155;28;20033;-76
2022/04/06 13:37:21;;;;;;;1.90;0.70;;;15.40;99.90;;;;;;20833724;28;20104;-75
2022/04/06 13:47:23;;;;;;;0.60;0.40;;;15.60;99.90;;;;;;20829640;28;20037;-75
2022/04/06 13:57:26;;;;;;;0.85;0.55;;;15.60;99.90;;;;;;20749157;28;20400;-75
2022/04/06 14:07:27;;;;;;;0.30;0.30;;;15.80;99.90;;;;;;20749464;28;20157;-76
2022/04/06 14:17:28;;;;;;;1.47;0.50;;;15.90;99.90;;;;;;20735402;28;20061;-76
2022/04/06 14:27:29;;;;;;;0.97;0.40;;;15.60;99.90;;;;;;20746931;28;20578;-76
2022/04/06 14:37:29;;;;;;;1.30;0.70;;;14.80;99.90;;;;;;20729024;28;20132;-75
2022/04/06 14:47:30;;;;;;;1.00;0.90;;;14.70;99.90;;;;;;20745845;28;20512;-75
2022/04/06 14:57:31;;;;;;;2.53;0.60;;;14.50;99.90;;;;;;20732711;28;20026;-75
2022/04/06 15:07:33;;;;;;;0.60;0.60;;;14.70;99.90;;;;;;20764621;28;20164;-76
2022/04/06 15:17:34;;;;;;;1.48;0.90;;;14.70;99.90;;;;;;20704059;28;20497;-75
2022/04/06 15:27:34;;;;;;;1.07;0.90;;;14.90;99.90;;;;;;20675576;28;20096;-74
2022/04/06 15:37:36;;;;;;;2.17;0.90;;;14.90;99.90;;;;;;20706725;28;20412;-75
2022/04/06 15:47:38;;;;;;;2.00;1.20;;;14.80;99.90;;;;;;20727253;28;20034;-75
2022/04/06 15:57:39;;;;;;;2.67;1.17;;;14.60;99.90;;;;;;20661377;28;20053;-75
2022/04/06 16:07:40;;;;;;;1.87;1.10;;;14.60;99.90;;;;;;20987320;23;20458;-75
2022/04/06 16:17:40;;;;;;;2.90;1.27;;;14.10;99.90;;;;;;21003231;28;20033;-76
2022/04/06 16:27:41;;;;;;;3.00;1.43;;;13.50;99.90;;;;;;20947093;28;20032;-78
2022/04/06 16:37:42;;;;;;;3.67;1.10;;;13.20;99.90;;;;;;20898536;28;20111;-78
2022/04/06 16:47:43;;;;;;;1.40;0.97;;;12.80;99.90;;;;;;20916719;28;20040;-78
2022/04/06 16:57:45;;;;;;;1.43;1.00;;;12.90;99.90;;;;;;20952120;28;20446;-75
2022/04/06 17:07:46;;;;;;;2.38;1.30;;;12.80;99.90;;;;;;20908861;28;20128;-77
2022/04/06 17:17:47;;;;;;;2.67;1.37;;;12.60;99.90;;;;;;20912681;28;20060;-77
2022/04/06 17:27:50;;;;;;;4.60;2.33;;;12.30;99.90;;;;;;20964097;28;20035;-77
2022/04/06 17:37:51;;;;;;;1.85;1.13;;;12.20;99.90;;;;;;20926716;28;20032;-77
2022/04/06 17:47:58;;;;;;;4.93;1.40;;;12.00;99.90;;;;;;20901001;28;20043;-76
2022/04/06 17:57:59;;;;;;;1.90;1.40;;;11.90;99.90;;;;;;20945006;28;20033;-77
2022/04/06 18:08:00;;;;;;;2.13;1.37;;;11.80;99.90;;;;;;20902488;28;20575;-74
2022/04/06 18:18:03;;;;;;;1.30;1.20;;;11.60;99.90;;;;;;20970301;28;20031;-76
2022/04/06 18:28:04;;;;;;;2.92;2.10;;;11.50;99.90;;;;;;20858174;28;20025;-74
2022/04/06 18:38:06;;;;;;;5.07;1.77;;;11.20;99.90;;;;;;20907120;28;20100;-74
2022/04/06 18:48:08;;;;;;;5.45;1.98;;;11.20;99.90;;;;;;20908453;28;20075;-74
2022/04/06 18:58:09;;;;;;;6.07;3.30;;;10.90;99.90;;;;;;20907561;28;20039;-74
2022/04/06 19:08:11;;;;;;;7.70;4.03;;;10.70;99.90;;;;;;20891872;28;20463;-74
2022/04/06 19:18:12;;;;;;;6.53;2.63;;;10.60;99.90;;;;;;20908443;28;20029;-74
2022/04/06 19:28:13;;;;;;;6.50;3.10;;;10.50;99.90;;;;;;20889023;28;20118;-75
2022/04/06 19:38:14;;;;;;;11.53;5.40;;;10.30;99.90;;;;;;20906673;28;20079;-76
2022/04/06 19:48:14;;;;;;;9.67;3.17;;;10.20;99.90;;;;;;20906261;28;20494;-75
2022/04/06 19:58:15;;;;;;;4.00;2.63;;;10.30;99.90;;;;;;20905758;28;20021;-74
2022/04/06 20:08:18;;;;;;;11.20;6.27;;;10.40;99.90;;;;;;20905615;28;20033;-75
2022/04/06 20:18:18;;;;;;;36.22;17.35;;;10.30;99.90;;;;;;20909378;28;20060;-75
2022/04/06 20:28:20;;;;;;;11.67;6.83;;;10.30;99.90;;;;;;20928399;28;20531;-75
2022/04/06 20:38:24;;;;;;;18.27;9.13;;;10.40;99.90;;;;;;20980000;28;20034;-76
2022/04/06 20:48:24;;;;;;;7.20;3.88;;;10.40;99.90;;;;;;20938165;28;20068;-78
2022/04/06 20:58:25;;;;;;;5.20;2.90;;;10.50;99.90;;;;;;20919497;28;20029;-78
2022/04/06 21:08:26;;;;;;;18.73;9.07;;;10.40;99.90;;;;;;20915203;28;20045;-76
2022/04/06 21:18:27;;;;;;;38.20;19.67;;;10.40;99.90;;;;;;20916948;28;20043;-76
2022/04/06 21:28:28;;;;;;;33.83;15.03;;;10.50;99.90;;;;;;20990417;28;20033;-78
2022/04/06 21:38:29;;;;;;;6.97;3.37;;;10.50;99.90;;;;;;20963257;28;20028;-77
2022/04/06 21:48:30;;;;;;;13.80;6.60;;;10.50;99.90;;;;;;20903509;28;20060;-76
2022/04/06 21:58:31;;;;;;;10.50;4.83;;;10.60;99.90;;;;;;20885677;28;20036;-78
2022/04/06 22:19:54;;;;;;;3.72;1.33;;;10.50;99.90;;;;;;20913009;28;20032;-77
2022/04/06 22:29:55;;;;;;;1.20;1.00;;;10.40;99.90;;;;;;20894533;28;20043;-77
2022/04/06 22:39:56;;;;;;;2.23;1.20;;;10.30;99.90;;;;;;20919832;28;20055;-78
2022/04/06 22:49:57;;;;;;;3.23;1.50;;;10.10;99.90;;;;;;20892510;28;20043;-77
2022/04/06 22:59:58;;;;;;;2.70;1.10;;;9.90;99.90;;;;;;20907845;28;20443;-77
2022/04/06 23:09:59;;;;;;;;;;;9.80;99.90;;;;;;20914346;28;20032;-76
2022/04/06 23:20:00;;;;;;;3.35;1.60;;;9.80;99.90;;;;;;20911941;28;20401;-77
2022/04/06 23:30:00;;;;;;;2.37;1.63;;;9.80;99.90;;;;;;20897436;28;20104;-78
2022/04/06 23:40:02;;;;;;;2.03;1.50;;;9.80;99.90;;;;;;20918384;28;20097;-77
2022/04/06 23:50:04;;;;;;;2.13;1.30;;;9.70;99.90;;;;;;20926566;28;20221;-78
